createdAt,value
2023-03-10T00:02:49.733Z,79.55
2023-03-10T00:05:40.231Z,48.80
2023-03-10T00:08:29.778Z,50.35
2023-03-10T00:11:19.629Z,68.63
2023-03-10T00:14:08.821Z,53.45
2023-03-10T00:16:57.989Z,53.03
2023-03-10T00:19:48.776Z,53.42
2023-03-10T00:22:38.080Z,49.50
2023-03-10T00:25:27.409Z,54.03
2023-03-10T00:28:16.750Z,53.03
2023-03-10T00:31:09.998Z,55.58
2023-03-10T00:34:00.721Z,49.40
2023-03-10T00:36:51.324Z,55.75
2023-03-10T00:39:40.596Z,91.50
2023-03-10T00:42:29.843Z,69.55
2023-03-10T00:45:19.394Z,59.97
2023-03-10T00:48:08.890Z,53.47
2023-03-10T00:50:58.543Z,47.50
2023-03-10T00:53:50.285Z,46.38
2023-03-10T00:56:40.100Z,59.03
2023-03-10T00:59:34.894Z,48.30
2023-03-10T01:02:30.191Z,42.63
2023-03-10T01:05:20.666Z,41.33
2023-03-10T01:08:09.944Z,46.90
2023-03-10T01:11:00.611Z,58.72
2023-03-10T01:13:51.002Z,47.05
2023-03-10T01:16:40.239Z,44.80
2023-03-10T01:19:29.436Z,41.72
2023-03-10T01:22:18.804Z,58.95
2023-03-10T01:25:09.227Z,35.30
2023-03-10T01:28:00.974Z,86.95
2023-03-10T01:30:50.673Z,40.42
2023-03-10T01:33:42.926Z,39.85
2023-03-10T01:36:32.210Z,44.20
2023-03-10T01:39:21.575Z,43.05
2023-03-10T01:42:10.726Z,49.97
2023-03-10T01:45:11.312Z,50.95
2023-03-10T01:48:00.861Z,41.65
2023-03-10T01:50:54.251Z,45.33
2023-03-10T01:53:43.806Z,56.33
2023-03-10T01:56:33.091Z,42.83
2023-03-10T01:59:23.227Z,41.70
2023-03-10T02:02:14.338Z,35.83
2023-03-10T02:05:04.523Z,39.63
2023-03-10T02:07:57.696Z,41.33
2023-03-10T02:10:47.932Z,49.90
2023-03-10T02:13:38.617Z,41.25
2023-03-10T02:16:27.910Z,45.05
2023-03-10T02:19:40.249Z,41.13
2023-03-10T02:22:29.665Z,45.30
2023-03-10T02:25:35.192Z,46.67
2023-03-10T02:28:25.944Z,45.00
2023-03-10T02:31:16.046Z,46.20
2023-03-10T02:34:06.789Z,48.33
2023-03-10T02:36:56.855Z,50.97
2023-03-10T02:39:46.078Z,44.33
2023-03-10T02:42:37.664Z,48.25
2023-03-10T02:45:35.690Z,44.85
2023-03-10T02:48:28.685Z,46.40
2023-03-10T02:51:22.563Z,42.28
2023-03-10T02:54:12.608Z,57.08
2023-03-10T02:57:02.117Z,42.30
2023-03-10T02:59:51.423Z,43.00
2023-03-10T03:02:42.415Z,45.65
2023-03-10T03:05:31.678Z,47.30
2023-03-10T03:08:21.874Z,44.72
2023-03-10T03:11:11.795Z,51.97
2023-03-10T03:14:01.477Z,48.28
2023-03-10T03:16:52.490Z,56.15
2023-03-10T03:19:43.209Z,50.60
2023-03-10T03:22:33.427Z,51.50
2023-03-10T03:25:24.126Z,65.50
2023-03-10T03:28:14.342Z,53.38
2023-03-10T03:31:05.934Z,58.08
2023-03-10T03:33:55.283Z,43.95
2023-03-10T03:36:46.151Z,51.17
2023-03-10T03:39:38.268Z,52.83
2023-03-10T03:42:29.965Z,52.97
2023-03-10T03:45:22.117Z,46.90
2023-03-10T03:48:15.001Z,59.22
2023-03-10T03:51:05.807Z,48.67
2023-03-10T03:54:02.763Z,57.05
2023-03-10T03:56:55.582Z,48.72
2023-03-10T03:59:44.856Z,42.30
2023-03-10T04:02:34.308Z,47.75
2023-03-10T04:05:24.032Z,48.78
2023-03-10T04:08:14.227Z,44.45
2023-03-10T04:11:05.108Z,44.13
2023-03-10T04:16:45.694Z,46.80
2023-03-10T04:19:35.495Z,48.88
2023-03-10T04:22:30.299Z,44.08
2023-03-10T04:25:20.078Z,51.00
2023-03-10T04:28:11.361Z,47.30
2023-03-10T04:31:00.730Z,46.47
2023-03-10T04:33:54.164Z,47.10
2023-03-10T04:36:44.602Z,51.22
2023-03-10T04:39:33.997Z,47.25
2023-03-10T04:42:23.680Z,47.83
2023-03-10T04:45:14.696Z,46.17
2023-03-10T04:48:05.678Z,103.88
2023-03-10T04:50:59.443Z,46.42
2023-03-10T04:53:51.431Z,48.00
2023-03-10T04:56:41.298Z,44.13
2023-03-10T04:59:30.730Z,42.45
2023-03-10T05:02:21.381Z,43.10
2023-03-10T05:05:12.838Z,40.10
2023-03-10T05:08:07.150Z,45.28
2023-03-10T05:10:56.833Z,38.85
2023-03-10T05:13:46.352Z,42.67
2023-03-10T05:16:35.804Z,39.85
2023-03-10T05:19:28.809Z,43.78
2023-03-10T05:22:20.257Z,39.05
2023-03-10T05:25:13.289Z,40.30
2023-03-10T05:28:04.001Z,41.65
2023-03-10T05:30:54.471Z,36.60
2023-03-10T05:33:44.351Z,39.88
2023-03-10T05:36:36.586Z,41.17
2023-03-10T05:42:20.289Z,43.78
2023-03-10T05:45:12.188Z,41.05
2023-03-10T05:48:01.791Z,38.78
2023-03-10T05:51:00.721Z,39.15
2023-03-10T05:53:52.260Z,40.10
2023-03-10T05:56:46.789Z,38.67
2023-03-10T05:59:36.218Z,40.00
2023-03-10T06:02:25.932Z,39.17
2023-03-10T06:05:15.381Z,41.00
2023-03-10T06:08:04.719Z,41.38
2023-03-10T06:10:55.537Z,41.67
2023-03-10T06:13:44.787Z,38.40
2023-03-10T06:16:34.156Z,37.70
2023-03-10T06:19:24.889Z,40.33
2023-03-10T06:22:14.285Z,36.92
2023-03-10T06:25:03.908Z,38.15
2023-03-10T06:27:54.545Z,38.10
2023-03-10T06:30:43.792Z,38.55
2023-03-10T06:33:33.847Z,38.78
2023-03-10T06:36:26.506Z,44.35
2023-03-10T06:39:15.774Z,38.20
2023-03-10T06:42:05.054Z,40.47
2023-03-10T06:44:57.506Z,42.70
2023-03-10T06:47:46.850Z,42.65
2023-03-10T06:50:41.904Z,43.83
2023-03-10T06:53:31.152Z,44.45
2023-03-10T06:56:23.489Z,40.92
2023-03-10T06:59:12.811Z,44.38
2023-03-10T07:02:03.903Z,43.28
2023-03-10T07:04:53.267Z,44.28
2023-03-10T07:07:42.532Z,45.92
2023-03-10T07:10:31.750Z,46.33
2023-03-10T07:13:22.064Z,48.85
2023-03-10T07:16:11.452Z,50.85
2023-03-10T07:19:02.032Z,48.75
2023-03-10T07:21:51.281Z,51.40
2023-03-10T07:24:40.573Z,52.53
2023-03-10T07:27:29.796Z,51.55
2023-03-10T07:30:19.611Z,53.08
2023-03-10T07:33:08.819Z,51.53
2023-03-10T07:35:59.496Z,52.38
2023-03-10T07:38:49.304Z,50.45
2023-03-10T07:41:38.501Z,49.40
2023-03-10T07:44:27.858Z,51.28
2023-03-10T07:47:17.406Z,45.88
2023-03-10T07:50:07.774Z,46.15
2023-03-10T07:52:59.288Z,44.95
2023-03-10T07:55:48.453Z,43.63
2023-03-10T07:58:38.085Z,43.50
2023-03-10T08:01:27.702Z,43.35
2023-03-10T08:04:17.405Z,43.55
2023-03-10T08:07:07.068Z,42.45
2023-03-10T08:09:57.662Z,40.65
2023-03-10T08:12:46.943Z,43.42
2023-03-10T08:15:36.709Z,43.67
2023-03-10T08:18:26.588Z,42.72
2023-03-10T08:21:15.755Z,43.47
2023-03-10T08:24:05.353Z,42.83
2023-03-10T08:26:56.532Z,40.47
2023-03-10T08:29:45.769Z,43.85
2023-03-10T08:32:35.062Z,42.30
2023-03-10T08:35:24.330Z,42.55
2023-03-10T08:38:13.525Z,42.22
2023-03-10T08:41:13.197Z,43.58
2023-03-10T08:44:04.272Z,41.42
2023-03-10T08:46:53.826Z,31.98
2023-03-10T08:49:45.744Z,22.30
2023-03-10T08:52:36.471Z,11.65
2023-03-10T08:55:25.820Z,11.52
2023-03-10T08:58:15.137Z,9.18
2023-03-10T09:01:06.357Z,10.25
2023-03-10T09:03:55.618Z,8.88
2023-03-10T09:06:44.890Z,9.50
2023-03-10T09:09:34.287Z,19.70
2023-03-10T09:12:23.518Z,19.25
2023-03-10T09:15:13.037Z,19.70
2023-03-10T09:18:03.861Z,15.18
2023-03-10T09:20:53.386Z,15.13
2023-03-10T09:23:45.866Z,9.23
2023-03-10T09:26:35.622Z,11.55
2023-03-10T09:29:41.784Z,10.38
2023-03-10T09:32:32.238Z,18.08
2023-03-10T09:35:23.215Z,12.65
2023-03-10T09:38:13.003Z,11.70
2023-03-10T09:41:20.248Z,16.45
2023-03-10T09:44:30.894Z,17.92
2023-03-10T09:47:38.386Z,14.15
2023-03-10T09:50:40.153Z,9.15
2023-03-10T09:54:09.195Z,9.32
2023-03-10T09:57:01.126Z,10.00
2023-03-10T09:59:55.422Z,9.52
2023-03-10T10:02:49.196Z,10.25
2023-03-10T10:05:42.891Z,15.15
2023-03-10T10:08:45.022Z,25.65
2023-03-10T10:11:38.454Z,42.78
2023-03-10T10:14:31.550Z,54.33
2023-03-10T10:17:33.816Z,56.05
2023-03-10T10:20:32.479Z,59.53
2023-03-10T10:23:30.926Z,56.33
2023-03-10T10:26:22.863Z,61.03
2023-03-10T10:29:20.130Z,57.63
2023-03-10T10:32:12.483Z,55.38
2023-03-10T10:35:17.196Z,58.05
2023-03-10T10:38:18.820Z,59.08
2023-03-10T10:41:19.738Z,58.00
2023-03-10T10:44:15.550Z,60.15
2023-03-10T10:47:05.025Z,57.05
2023-03-10T10:49:54.865Z,52.97
2023-03-10T10:52:46.416Z,47.65
2023-03-10T10:55:37.229Z,43.47
2023-03-10T10:58:31.799Z,38.55
2023-03-10T11:01:21.137Z,33.47
2023-03-10T11:04:15.881Z,33.28
2023-03-10T11:07:13.346Z,28.23
2023-03-10T11:10:03.086Z,25.98
2023-03-10T11:13:05.741Z,24.60
2023-03-10T11:16:06.602Z,21.70
2023-03-10T11:19:02.092Z,23.05
2023-03-10T11:21:57.393Z,18.63
2023-03-10T11:24:53.556Z,19.58
2023-03-10T11:27:50.480Z,16.55
2023-03-10T11:30:46.530Z,16.48
2023-03-10T11:33:47.425Z,15.52
2023-03-10T11:36:55.499Z,12.55
2023-03-10T11:39:56.080Z,12.02
2023-03-10T11:42:56.251Z,11.40
2023-03-10T11:45:52.841Z,13.40
2023-03-10T11:48:54.398Z,14.48
2023-03-10T11:51:47.468Z,10.70
2023-03-10T11:54:42.404Z,16.48
2023-03-10T11:57:38.145Z,10.02
2023-03-10T12:00:34.521Z,11.48
2023-03-10T12:03:40.603Z,12.20
2023-03-10T12:06:40.065Z,13.43
2023-03-10T12:09:42.333Z,10.02
2023-03-10T12:12:36.390Z,12.57
2023-03-10T12:15:30.486Z,7.90
2023-03-10T12:18:19.815Z,8.32
2023-03-10T12:21:24.051Z,12.00
2023-03-10T12:24:46.346Z,8.65
2023-03-10T12:28:13.489Z,13.43
2023-03-10T12:31:04.938Z,9.05
2023-03-10T12:34:09.226Z,11.30
2023-03-10T12:37:08.583Z,6.38
2023-03-10T12:39:59.317Z,25.33
2023-03-10T12:42:48.595Z,8.43
2023-03-10T12:45:45.672Z,12.25
2023-03-10T12:48:41.670Z,16.33
2023-03-10T12:51:32.658Z,7.53
2023-03-10T12:55:24.405Z,5.18
2023-03-10T12:58:22.613Z,8.85
2023-03-10T13:01:16.391Z,8.50
2023-03-10T13:04:08.994Z,7.45
2023-03-10T13:07:03.699Z,8.77
2023-03-10T13:09:54.104Z,8.95
2023-03-10T13:12:49.205Z,15.93
2023-03-10T13:15:39.811Z,15.18
2023-03-10T13:18:29.635Z,14.95
2023-03-10T13:21:29.556Z,14.82
2023-03-10T13:24:26.641Z,15.70
2023-03-10T13:27:19.702Z,18.90
2023-03-10T13:33:24.674Z,17.90
2023-03-10T13:36:30.043Z,15.90
2023-03-10T13:39:24.333Z,13.77
2023-03-10T13:42:37.096Z,13.38
2023-03-10T13:45:34.415Z,6.80
2023-03-10T13:48:27.356Z,5.32
2023-03-10T13:51:23.850Z,6.55
2023-03-10T13:54:21.480Z,8.45
2023-03-10T13:57:19.100Z,10.15
2023-03-10T14:00:13.394Z,17.10
2023-03-10T14:03:03.028Z,9.98
2023-03-10T14:05:54.077Z,12.48
2023-03-10T14:08:43.248Z,13.18
2023-03-10T14:11:36.821Z,15.57
2023-03-10T14:14:32.033Z,19.73
2023-03-10T14:17:35.361Z,15.07
2023-03-10T14:23:32.557Z,18.08
2023-03-10T14:26:21.697Z,18.80
2023-03-10T14:29:17.174Z,21.65
2023-03-10T14:32:07.810Z,17.45
2023-03-10T14:34:57.131Z,19.52
2023-03-10T14:37:46.361Z,15.80
2023-03-10T14:40:42.526Z,17.33
2023-03-10T14:43:33.361Z,12.23
2023-03-10T14:46:22.837Z,18.75
2023-03-10T14:49:17.579Z,14.35
2023-03-10T14:52:14.433Z,16.90
2023-03-10T14:55:03.764Z,15.60
2023-03-10T14:58:01.065Z,20.27
2023-03-10T15:00:51.082Z,15.52
2023-03-10T15:03:41.373Z,12.77
2023-03-10T15:06:30.605Z,17.45
2023-03-10T15:09:20.007Z,16.58
2023-03-10T15:12:11.315Z,20.65
2023-03-10T15:15:01.924Z,18.85
2023-03-10T15:17:52.091Z,17.65
2023-03-10T15:20:41.789Z,19.05
2023-03-10T15:23:32.484Z,17.25
2023-03-10T15:26:21.958Z,15.57
2023-03-10T15:29:15.062Z,18.15
2023-03-10T15:34:55.713Z,21.05
2023-03-10T15:37:45.865Z,17.95
2023-03-10T15:40:36.133Z,16.95
2023-03-10T15:43:25.630Z,15.02
2023-03-10T15:46:15.005Z,13.73
2023-03-10T15:49:06.642Z,13.27
2023-03-10T15:51:56.180Z,14.63
2023-03-10T15:54:45.511Z,15.60
2023-03-10T15:57:35.060Z,15.25
2023-03-10T16:00:26.806Z,16.48
2023-03-10T16:03:18.380Z,19.25
2023-03-10T16:06:10.745Z,18.42
2023-03-10T16:09:00.180Z,18.40
2023-03-10T16:11:49.735Z,17.08
2023-03-10T16:14:39.023Z,17.85
2023-03-10T16:17:31.559Z,18.40
2023-03-10T16:20:21.406Z,18.30
2023-03-10T16:23:12.137Z,19.55
2023-03-10T16:26:13.428Z,19.85
2023-03-10T16:29:02.601Z,18.60
2023-03-10T16:31:51.982Z,18.23
2023-03-10T16:34:41.145Z,21.65
2023-03-10T16:37:31.663Z,18.77
2023-03-10T16:40:22.323Z,20.83
2023-03-10T16:43:11.824Z,21.55
2023-03-10T16:46:10.381Z,21.35
2023-03-10T16:49:01.241Z,18.65
2023-03-10T16:51:50.610Z,18.77
2023-03-10T16:54:39.918Z,17.20
2023-03-10T16:57:30.667Z,18.27
2023-03-10T17:00:21.251Z,16.58
2023-03-10T17:03:10.548Z,16.65
2023-03-10T17:05:59.883Z,13.90
2023-03-10T17:08:49.616Z,15.13
2023-03-10T17:11:41.654Z,17.33
2023-03-10T17:14:32.307Z,14.63
2023-03-10T17:17:21.687Z,18.15
2023-03-10T17:20:12.767Z,16.27
2023-03-10T17:23:02.648Z,14.63
2023-03-10T17:25:51.997Z,13.15
2023-03-10T17:28:43.066Z,15.15
2023-03-10T17:31:34.098Z,14.48
2023-03-10T17:34:23.709Z,14.70
2023-03-10T17:37:12.949Z,13.90
2023-03-10T17:40:02.091Z,11.82
2023-03-10T17:42:51.741Z,13.75
2023-03-10T17:45:41.025Z,15.23
2023-03-10T17:48:32.840Z,18.27
2023-03-10T17:51:25.822Z,16.17
2023-03-10T17:54:17.470Z,15.93
2023-03-10T17:57:07.151Z,18.98
2023-03-10T17:59:56.505Z,31.30
2023-03-10T18:02:45.941Z,22.65
2023-03-10T18:05:41.446Z,26.08
2023-03-10T18:08:30.920Z,37.88
2023-03-10T18:11:21.743Z,36.38
2023-03-10T18:14:11.167Z,53.88
2023-03-10T18:17:02.964Z,58.22
2023-03-10T18:19:54.170Z,34.33
2023-03-10T18:22:44.761Z,63.08
2023-03-10T18:25:34.078Z,72.93
2023-03-10T18:28:24.029Z,76.80
2023-03-10T18:31:19.710Z,85.22
2023-03-10T18:34:10.293Z,57.88
2023-03-10T18:36:59.970Z,54.58
2023-03-10T18:39:50.754Z,56.00
2023-03-10T18:42:40.050Z,62.85
2023-03-10T18:45:29.207Z,163.63
2023-03-10T18:48:18.496Z,154.15
2023-03-10T18:51:07.730Z,197.60
2023-03-10T18:53:57.336Z,114.43
2023-03-10T18:56:48.047Z,149.02
2023-03-10T18:59:37.533Z,131.75
2023-03-10T19:02:27.153Z,107.20
2023-03-10T19:05:17.743Z,135.27
2023-03-10T19:08:07.876Z,101.47
2023-03-10T19:10:58.957Z,96.10
2023-03-10T19:13:49.808Z,119.45
2023-03-10T19:16:40.855Z,99.43
2023-03-10T19:19:30.227Z,94.07
2023-03-10T19:22:19.538Z,81.82
2023-03-10T19:25:13.000Z,101.85
2023-03-10T19:28:02.969Z,124.15
2023-03-10T19:30:54.492Z,113.25
2023-03-10T19:33:44.253Z,116.25
2023-03-10T19:36:34.607Z,112.47
2023-03-10T19:39:24.537Z,77.70
2023-03-10T19:42:13.694Z,98.25
2023-03-10T19:45:03.855Z,111.35
2023-03-10T19:47:58.129Z,119.07
2023-03-10T19:50:55.448Z,134.40
2023-03-10T19:53:44.856Z,136.30
2023-03-10T19:56:34.613Z,126.30
2023-03-10T19:59:25.264Z,173.55
2023-03-10T20:02:17.568Z,175.45
2023-03-10T20:05:10.083Z,141.23
2023-03-10T20:08:00.643Z,132.33
2023-03-10T20:10:50.249Z,141.80
2023-03-10T20:13:39.827Z,114.50
2023-03-10T20:16:29.594Z,114.47
2023-03-10T20:19:22.948Z,131.05
2023-03-10T20:22:18.612Z,128.95
2023-03-10T20:25:11.691Z,129.05
2023-03-10T20:28:01.411Z,111.82
2023-03-10T20:30:50.972Z,117.43
2023-03-10T20:33:40.247Z,124.15
2023-03-10T20:36:31.059Z,147.85
2023-03-10T20:39:22.885Z,165.82
2023-03-10T20:42:13.204Z,160.35
2023-03-10T20:45:02.767Z,144.23
2023-03-10T20:47:53.348Z,134.52
2023-03-10T20:50:43.029Z,139.45
2023-03-10T20:53:37.469Z,139.27
2023-03-10T20:56:31.066Z,131.98
2023-03-10T20:59:21.484Z,143.75
2023-03-10T21:02:16.032Z,189.75
2023-03-10T21:05:06.645Z,205.48
2023-03-10T21:07:56.383Z,217.27
2023-03-10T21:10:47.675Z,196.77
2023-03-10T21:13:41.169Z,176.80
2023-03-10T21:16:31.010Z,179.23
2023-03-10T21:19:20.274Z,176.13
2023-03-10T21:22:10.170Z,194.35
2023-03-10T21:24:59.597Z,187.93
2023-03-10T21:27:51.278Z,182.60
2023-03-10T21:30:43.454Z,179.70
2023-03-10T21:33:34.106Z,161.43
2023-03-10T21:36:25.406Z,153.70
2023-03-10T21:39:14.762Z,188.68
2023-03-10T21:42:04.178Z,164.20
2023-03-10T21:44:55.274Z,166.77
2023-03-10T21:47:46.289Z,166.60
2023-03-10T21:50:35.710Z,171.63
2023-03-10T21:53:26.846Z,188.57
2023-03-10T21:56:17.970Z,186.52
2023-03-10T21:59:08.008Z,200.48
2023-03-10T22:01:57.509Z,213.02
2023-03-10T22:04:48.189Z,240.90
2023-03-10T22:07:40.681Z,239.95
2023-03-10T22:10:30.321Z,223.43
2023-03-10T22:13:19.673Z,195.52
2023-03-10T22:16:10.914Z,194.85
2023-03-10T22:19:00.557Z,199.63
2023-03-10T22:21:51.451Z,197.80
2023-03-10T22:24:41.290Z,212.15
2023-03-10T22:27:30.644Z,209.50
2023-03-10T22:30:20.488Z,181.75
2023-03-10T22:33:09.707Z,192.63
2023-03-10T22:36:03.931Z,189.48
2023-03-10T22:38:54.763Z,183.98
2023-03-10T22:41:44.145Z,178.65
2023-03-10T22:44:36.787Z,173.63
2023-03-10T22:47:26.459Z,170.70
2023-03-10T22:50:19.789Z,171.27
2023-03-10T22:53:14.237Z,166.35
2023-03-10T22:56:05.165Z,166.02
2023-03-10T22:58:54.588Z,179.75
2023-03-10T23:01:44.637Z,179.80
2023-03-10T23:04:34.183Z,190.60
2023-03-10T23:07:23.370Z,176.10
2023-03-10T23:10:19.000Z,160.02
2023-03-10T23:13:14.866Z,171.98
2023-03-10T23:16:04.367Z,178.48
2023-03-10T23:18:53.608Z,177.60
2023-03-10T23:21:42.747Z,163.85
2023-03-10T23:24:32.054Z,164.55
2023-03-10T23:27:21.406Z,161.68
2023-03-10T23:30:14.921Z,160.48
2023-03-10T23:33:05.041Z,156.23
2023-03-10T23:35:54.772Z,144.25
2023-03-10T23:38:44.000Z,163.70
2023-03-10T23:41:33.197Z,156.30
2023-03-10T23:44:22.810Z,162.20
2023-03-10T23:47:13.469Z,155.15
2023-03-10T23:50:02.826Z,168.07
2023-03-10T23:52:52.326Z,162.15
2023-03-10T23:55:44.421Z,172.90
2023-03-10T23:58:33.726Z,148.68
